Time;durP1;ratioP1;P1;durP2;ratioP2;P2;SDS_P1;SDS_P2;PMS_P1;PMS_P2;Temp;Humidity;BMP_temperature;BMP_pressure;BME280_temperature;BME280_humidity;BME280_pressure;Samples;Min_cycle;Max_cycle;Signal;HPM_P1;HPM_P2
2022/09/09 00:01:13;;;;;;;0.00;0.00;;;22.70;98.10;;;;;;4943861;28;20027;-82
2022/09/09 00:04:05;;;;;;;0.00;0.00;;;20.70;98.00;;;;;;4947546;28;20754;-87
2022/09/09 00:06:35;;;;;;;0.43;0.43;;;22.60;98.70;;;;;;4945571;28;20031;-80
2022/09/09 00:09:20;;;;;;;0.30;0.30;;;22.40;99.70;;;;;;4946985;28;20031;-80
2022/09/09 00:12:22;;;;;;;0.00;0.00;;;22.40;99.90;;;;;;4950072;28;20027;-83
2022/09/09 00:15:07;;;;;;;0.10;0.10;;;21.70;99.60;;;;;;4939637;28;20082;-83
2022/09/09 00:17:42;;;;;;;0.10;0.10;;;22.80;99.90;;;;;;4952584;28;20216;-82
2022/09/09 00:20:27;;;;;;;0.10;0.10;;;22.20;99.90;;;;;;4997404;28;20397;-85
2022/09/09 00:23:21;;;;;;;0.00;0.00;;;22.00;99.90;;;;;;5011883;28;20080;-86
2022/09/09 00:26:18;;;;;;;0.00;0.00;;;22.00;99.90;;;;;;5031184;28;20537;-78
2022/09/09 00:29:33;;;;;;;0.65;0.65;;;23.40;99.90;;;;;;5012650;28;20036;-83
2022/09/09 00:32:19;;;;;;;0.00;0.00;;;21.90;99.90;;;;;;5014486;28;20037;-79
2022/09/09 00:35:05;;;;;;;0.28;0.28;;;21.90;99.90;;;;;;5013208;28;20025;-83
2022/09/09 00:37:41;;;;;;;0.00;0.00;;;22.20;99.90;;;;;;5011285;28;20132;-82
2022/09/09 00:40:30;;;;;;;0.10;0.10;;;21.90;99.90;;;;;;5013120;28;20120;-84
2022/09/09 00:43:35;;;;;;;0.00;0.00;;;21.70;99.90;;;;;;5002479;28;20037;-81
2022/09/09 00:46:24;;;;;;;0.10;0.10;;;22.20;99.90;;;;;;4967913;28;20034;-80
2022/09/09 00:49:01;;;;;;;0.00;0.00;;;21.90;99.90;;;;;;4972990;28;20050;-86
2022/09/09 00:51:58;;;;;;;0.00;0.00;;;21.20;99.90;;;;;;4951833;28;20031;-83
2022/09/09 00:55:00;;;;;;;0.15;0.15;;;21.90;99.90;;;;;;4952635;28;20035;-80
2022/09/09 00:57:42;;;;;;;2.58;2.38;;;21.80;99.90;;;;;;4946364;28;20026;-81
2022/09/09 01:00:47;;;;;;;0.00;0.00;;;22.20;99.90;;;;;;4934141;28;20126;-81
2022/09/09 01:03:37;;;;;;;0.10;0.10;;;21.70;99.90;;;;;;4950079;28;20033;-86
2022/09/09 01:06:19;;;;;;;1.85;1.75;;;18.90;99.90;;;;;;4951887;28;20027;-88
2022/09/09 01:09:12;;;;;;;0.20;0.20;;;19.80;99.90;;;;;;4954343;28;20454;-82
2022/09/09 01:11:42;;;;;;;0.00;0.00;;;;;;;;;;4951599;28;20504;-85
2022/09/09 01:14:36;;;;;;;0.40;0.40;;;21.30;99.90;;;;;;4946734;28;20054;-79
2022/09/09 01:17:37;;;;;;;0.00;0.00;;;21.00;99.90;;;;;;4962524;28;20240;-85
2022/09/09 01:20:19;;;;;;;0.10;0.10;;;21.10;99.90;;;;;;4945169;28;20031;-86
2022/09/09 01:22:50;;;;;;;0.00;0.00;;;21.00;99.90;;;;;;4945422;28;20035;-87
2022/09/09 01:25:46;;;;;;;0.10;0.10;;;21.00;99.90;;;;;;4961518;28;20031;-84
2022/09/09 01:28:19;;;;;;;0.10;0.10;;;20.80;99.90;;;;;;4961656;28;20031;-80
2022/09/09 01:30:48;;;;;;;;;;;20.40;99.90;;;;;;5009860;28;20060;-78
2022/09/09 01:33:22;;;;;;;0.00;0.00;;;20.60;99.90;;;;;;5021378;28;19956;-85
2022/09/09 01:36:02;;;;;;;0.10;0.10;;;20.40;99.90;;;;;;5058527;23;20344;-79
2022/09/09 01:38:47;;;;;;;0.22;0.22;;;20.40;99.90;;;;;;5061669;28;20055;-80
2022/09/09 01:41:13;;;;;;;0.00;0.00;;;20.20;99.90;;;;;;5077519;28;20526;-78
2022/09/09 01:43:42;;;;;;;0.00;0.00;;;20.30;99.90;;;;;;5060988;28;20024;-79
2022/09/09 01:46:14;;;;;;;0.00;0.00;;;20.30;99.90;;;;;;5078648;28;20399;-78
2022/09/09 01:48:55;;;;;;;0.10;0.10;;;20.20;99.90;;;;;;5078277;28;20024;-78
2022/09/09 01:51:27;;;;;;;0.00;0.00;;;20.00;99.90;;;;;;5077882;28;20020;-78
2022/09/09 01:53:53;;;;;;;0.00;0.00;;;19.90;99.90;;;;;;5077210;28;20489;-79
2022/09/09 01:56:43;;;;;;;0.00;0.00;;;19.90;99.90;;;;;;5078990;28;20064;-77
2022/09/09 01:59:46;;;;;;;0.00;0.00;;;19.90;99.90;;;;;;5061667;28;20473;-92
2022/09/09 02:02:32;;;;;;;0.43;0.43;;;19.90;99.90;;;;;;5061337;28;20027;-78
2022/09/09 02:05:28;;;;;;;0.10;0.10;;;19.70;99.90;;;;;;5076280;28;20244;-81
2022/09/09 02:11:56;;;;;;;3.40;1.35;;;19.50;99.90;;;;;;4939179;29;20704;-82
2022/09/09 02:14:33;;;;;;;0.00;0.00;;;19.60;99.90;;;;;;4900357;28;20064;-78
2022/09/09 02:17:09;;;;;;;0.13;0.13;;;19.60;99.90;;;;;;4915704;29;20044;-79
2022/09/09 02:19:46;;;;;;;0.00;0.00;;;19.70;99.90;;;;;;4914936;28;20036;-82
2022/09/09 02:22:17;;;;;;;0.10;0.10;;;19.70;99.90;;;;;;4914889;29;20072;-78
2022/09/09 02:24:47;;;;;;;0.10;0.10;;;18.30;99.90;;;;;;4914737;29;20334;-78
2022/09/09 02:27:19;;;;;;;0.00;0.00;;;19.70;99.90;;;;;;4900613;29;20079;-78
2022/09/09 02:29:47;;;;;;;0.10;0.10;;;19.80;99.90;;;;;;4884014;29;20035;-79
2022/09/09 02:32:52;;;;;;;1.40;1.40;;;20.00;99.90;;;;;;4900309;29;20107;-84
2022/09/09 02:35:24;;;;;;;0.10;0.10;;;20.10;99.90;;;;;;4884599;29;20092;-82
2022/09/09 02:37:52;;;;;;;0.28;0.28;;;21.10;99.90;;;;;;4898999;29;20086;-81
2022/09/09 02:40:34;;;;;;;0.00;0.00;;;20.20;99.90;;;;;;4899963;29;20605;-78
2022/09/09 02:43:02;;;;;;;0.63;0.63;;;20.70;99.90;;;;;;4901445;29;20044;-78
2022/09/09 02:45:42;;;;;;;0.00;0.00;;;20.20;99.90;;;;;;4920213;28;20083;-77
2022/09/09 02:48:23;;;;;;;0.00;0.00;;;19.90;99.90;;;;;;4988926;28;20331;-78
2022/09/09 02:51:16;;;;;;;0.10;0.10;;;20.00;99.90;;;;;;5038671;28;20029;-83
2022/09/09 02:53:55;;;;;;;0.10;0.10;;;20.10;99.90;;;;;;5045134;28;20021;-80
2022/09/09 02:56:28;;;;;;;0.15;0.15;;;19.80;99.90;;;;;;5043364;28;20096;-76
2022/09/09 02:58:54;;;;;;;0.00;0.00;;;18.30;99.90;;;;;;5045702;28;20013;-76
2022/09/09 03:01:20;;;;;;;0.10;0.10;;;19.40;99.90;;;;;;5047279;28;20060;-76
2022/09/09 03:03:46;;;;;;;0.10;0.10;;;19.40;99.90;;;;;;5042944;28;20033;-76
2022/09/09 03:06:17;;;;;;;0.00;0.00;;;19.50;99.90;;;;;;5045507;28;20036;-84
2022/09/09 03:08:43;;;;;;;0.00;0.00;;;19.90;99.90;;;;;;5046545;28;20053;-77
2022/09/09 03:11:09;;;;;;;0.00;0.00;;;;;;;;;;5042332;28;20075;-75
2022/09/09 03:13:37;;;;;;;0.00;0.00;;;20.00;99.90;;;;;;5046335;28;20048;-74
2022/09/09 03:16:06;;;;;;;0.10;0.10;;;20.50;99.90;;;;;;5046262;28;20120;-74
2022/09/09 03:18:57;;;;;;;0.10;0.10;;;20.10;99.90;;;;;;5046380;28;20226;-80
2022/09/09 03:21:58;;;;;;;4.35;4.13;;;20.50;99.90;;;;;;4965411;28;20631;-83
2022/09/09 03:24:24;;;;;;;0.10;0.10;;;19.90;99.90;;;;;;4979771;28;20081;-78
2022/09/09 03:26:57;;;;;;;0.20;0.20;;;20.50;99.90;;;;;;4979223;28;20049;-77
2022/09/09 03:29:23;;;;;;;0.10;0.10;;;20.40;99.90;;;;;;4963488;28;20022;-79
2022/09/09 03:31:51;;;;;;;0.38;0.38;;;20.70;99.90;;;;;;4962574;28;20057;-77
2022/09/09 03:34:21;;;;;;;0.10;0.10;;;20.70;99.90;;;;;;4962317;28;20556;-77
2022/09/09 03:36:49;;;;;;;0.10;0.10;;;20.70;99.90;;;;;;4998925;28;20370;-81
2022/09/09 03:39:20;;;;;;;0.10;0.10;;;20.70;99.90;;;;;;4982686;28;20578;-79
2022/09/09 03:41:49;;;;;;;0.10;0.10;;;19.40;99.90;;;;;;4983170;28;20531;-77
2022/09/09 03:44:18;;;;;;;0.10;0.10;;;22.00;99.90;;;;;;4983823;28;20512;-78
2022/09/09 03:46:44;;;;;;;0.00;0.00;;;18.50;99.90;;;;;;5000696;28;20365;-77
2022/09/09 03:49:10;;;;;;;0.10;0.10;;;20.60;99.90;;;;;;4984112;28;20369;-77
2022/09/09 03:51:36;;;;;;;0.13;0.13;;;20.60;99.90;;;;;;4984605;28;20065;-82
2022/09/09 03:54:07;;;;;;;0.00;0.00;;;20.60;99.90;;;;;;4983730;28;20036;-80
2022/09/09 03:56:41;;;;;;;0.10;0.10;;;20.60;99.90;;;;;;5000219;28;20112;-78
2022/09/09 03:59:09;;;;;;;0.10;0.10;;;20.60;99.90;;;;;;5026047;28;20393;-81
2022/09/09 04:01:35;;;;;;;1.38;1.38;;;20.70;99.90;;;;;;5044271;28;20324;-83
2022/09/09 04:04:02;;;;;;;0.10;0.10;;;20.70;99.90;;;;;;5044241;28;20414;-77
2022/09/09 04:06:29;;;;;;;0.08;0.08;;;20.50;99.90;;;;;;5041655;28;20035;-77
2022/09/09 04:08:57;;;;;;;0.03;0.03;;;19.80;99.90;;;;;;5045543;28;20029;-79
2022/09/09 04:11:26;;;;;;;0.10;0.10;;;20.10;99.90;;;;;;5044274;28;20021;-79
2022/09/09 04:13:53;;;;;;;0.00;0.00;;;19.90;99.90;;;;;;5042970;28;20552;-80
2022/09/09 04:16:21;;;;;;;0.10;0.10;;;20.10;99.90;;;;;;5052122;28;20037;-79
2022/09/09 04:18:48;;;;;;;0.10;0.10;;;19.60;99.90;;;;;;5042326;28;20017;-78
2022/09/09 04:21:23;;;;;;;0.03;0.03;;;20.20;99.90;;;;;;5040944;28;20025;-76
2022/09/09 04:23:49;;;;;;;0.10;0.10;;;;;;;;;;5041633;28;20488;-79
2022/09/09 04:26:17;;;;;;;7.03;6.60;;;19.90;99.90;;;;;;5043746;28;20025;-78
2022/09/09 04:28:44;;;;;;;2.05;1.95;;;19.80;99.90;;;;;;5045479;28;20017;-81
2022/09/09 04:31:35;;;;;;;0.10;0.10;;;19.90;99.90;;;;;;5046726;28;20020;-79
2022/09/09 04:34:04;;;;;;;0.00;0.00;;;20.10;99.90;;;;;;5039490;28;20029;-80
2022/09/09 04:36:34;;;;;;;2.10;2.00;;;20.20;99.90;;;;;;5084510;28;20044;-79
2022/09/09 04:39:03;;;;;;;0.10;0.10;;;20.20;99.90;;;;;;5069704;28;20081;-81
2022/09/09 04:41:32;;;;;;;0.10;0.10;;;20.30;99.90;;;;;;5089189;28;20259;-78
2022/09/09 04:43:58;;;;;;;0.00;0.00;;;23.70;99.90;;;;;;5068242;28;20032;-80
2022/09/09 04:46:25;;;;;;;0.10;0.10;;;20.20;99.90;;;;;;5085553;28;20101;-78
2022/09/09 04:48:52;;;;;;;1.20;1.20;;;20.90;99.90;;;;;;5064197;28;20060;-78
2022/09/09 04:51:18;;;;;;;0.00;0.00;;;20.50;99.90;;;;;;5092014;28;20034;-79
2022/09/09 04:53:44;;;;;;;0.30;0.30;;;20.10;99.90;;;;;;5064272;28;20107;-79
2022/09/09 04:56:15;;;;;;;0.10;0.10;;;20.00;99.90;;;;;;5064469;28;20050;-79
2022/09/09 04:58:42;;;;;;;0.10;0.10;;;19.70;99.90;;;;;;5091766;28;20321;-87
2022/09/09 05:01:13;;;;;;;4.80;3.25;;;19.70;99.90;;;;;;5069887;28;20606;-79
2022/09/09 05:03:40;;;;;;;0.00;0.00;;;19.90;99.90;;;;;;5067486;28;20024;-78
2022/09/09 05:06:19;;;;;;;0.00;0.00;;;20.00;99.90;;;;;;5081744;28;20046;-80
2022/09/09 05:08:45;;;;;;;0.10;0.10;;;19.60;99.90;;;;;;5065283;28;20082;-81
2022/09/09 05:11:27;;;;;;;0.10;0.10;;;19.30;99.90;;;;;;5063150;28;20116;-78
2022/09/09 05:13:53;;;;;;;0.40;0.40;;;15.10;99.90;;;;;;5063929;28;20027;-79
2022/09/09 05:16:23;;;;;;;0.10;0.10;;;19.00;99.90;;;;;;5080412;28;20020;-79
2022/09/09 05:18:52;;;;;;;0.00;0.00;;;21.50;99.90;;;;;;5081317;28;20363;-80
2022/09/09 05:21:20;;;;;;;0.10;0.10;;;19.40;99.90;;;;;;5065109;28;20032;-79
2022/09/09 05:23:48;;;;;;;0.10;0.10;;;18.90;99.90;;;;;;5080392;28;20020;-78
2022/09/09 05:26:24;;;;;;;0.10;0.10;;;19.70;99.90;;;;;;5062902;28;20024;-86
2022/09/09 05:28:53;;;;;;;0.00;0.00;;;19.70;99.90;;;;;;5085477;28;20016;-82
2022/09/09 05:31:19;;;;;;;0.00;0.00;;;18.80;99.90;;;;;;5061869;28;20305;-78
2022/09/09 05:33:49;;;;;;;0.10;0.10;;;19.80;99.90;;;;;;5063484;28;20020;-82
2022/09/09 05:36:25;;;;;;;0.10;0.10;;;20.00;99.90;;;;;;5064770;28;20634;-79
2022/09/09 05:38:56;;;;;;;0.13;0.13;;;20.40;99.90;;;;;;5063365;28;20016;-83
2022/09/09 05:41:22;;;;;;;0.10;0.10;;;20.40;99.90;;;;;;5062787;28;20161;-79
2022/09/09 05:43:51;;;;;;;0.10;0.10;;;20.40;99.90;;;;;;5061612;28;20324;-77
2022/09/09 05:46:22;;;;;;;0.00;0.00;;;20.40;99.90;;;;;;5062364;28;20076;-80
2022/09/09 05:48:53;;;;;;;1.35;1.27;;;20.60;99.90;;;;;;5061838;28;20078;-82
2022/09/09 05:51:22;;;;;;;0.10;0.10;;;20.60;99.90;;;;;;5061723;28;20261;-78
2022/09/09 05:53:48;;;;;;;0.10;0.10;;;20.80;99.90;;;;;;5061514;28;20016;-83
2022/09/09 05:56:20;;;;;;;0.10;0.10;;;20.90;99.90;;;;;;5079297;28;20028;-78
2022/09/09 05:58:53;;;;;;;0.08;0.08;;;20.60;99.90;;;;;;5078876;28;20059;-78
2022/09/09 06:01:31;;;;;;;0.08;0.08;;;20.00;99.90;;;;;;5060223;28;20115;-80
2022/09/09 06:03:57;;;;;;;0.10;0.10;;;20.30;99.90;;;;;;5078811;28;20517;-80
2022/09/09 06:06:26;;;;;;;0.08;0.08;;;20.30;99.90;;;;;;5059566;28;20082;-78
2022/09/09 06:08:57;;;;;;;0.10;0.10;;;20.50;99.90;;;;;;5059717;28;20496;-77
2022/09/09 06:11:32;;;;;;;0.00;0.00;;;20.60;99.90;;;;;;5078288;28;20508;-81
2022/09/09 06:13:59;;;;;;;0.00;0.00;;;20.60;99.90;;;;;;5060210;28;20028;-80
2022/09/09 06:16:29;;;;;;;7.00;3.60;;;20.70;99.90;;;;;;5077727;28;20486;-80
2022/09/09 06:19:05;;;;;;;1.27;0.47;;;20.10;99.90;;;;;;5059710;28;20592;-82
2022/09/09 06:21:40;;;;;;;0.10;0.10;;;20.30;99.90;;;;;;5061577;28;20634;-80
2022/09/09 06:24:10;;;;;;;0.10;0.10;;;20.30;99.90;;;;;;5060519;28;20314;-79
2022/09/09 06:26:45;;;;;;;0.25;0.25;;;20.60;99.90;;;;;;5079925;28;20017;-81
2022/09/09 06:29:13;;;;;;;0.17;0.17;;;20.60;99.90;;;;;;5065117;28;20311;-78
2022/09/09 06:31:39;;;;;;;0.10;0.10;;;20.70;99.90;;;;;;5063355;28;20280;-79
2022/09/09 06:34:10;;;;;;;0.10;0.10;;;21.00;99.90;;;;;;5063687;28;20085;-79
2022/09/09 06:36:39;;;;;;;0.10;0.10;;;21.00;99.90;;;;;;5061038;28;20544;-78
2022/09/09 06:39:10;;;;;;;0.25;0.25;;;20.90;99.90;;;;;;5078968;28;20020;-80
2022/09/09 06:41:36;;;;;;;0.00;0.00;;;20.90;99.90;;;;;;5062253;28;20027;-78
2022/09/09 06:44:03;;;;;;;0.10;0.10;;;21.10;99.90;;;;;;5061944;28;20111;-86
2022/09/09 06:46:33;;;;;;;0.28;0.28;;;20.00;99.90;;;;;;5079486;28;20020;-85
2022/09/09 06:48:59;;;;;;;0.10;0.10;;;21.30;99.90;;;;;;5063479;28;20020;-79
2022/09/09 06:51:42;;;;;;;0.10;0.10;;;21.10;99.90;;;;;;5080650;28;20208;-79
2022/09/09 06:54:08;;;;;;;0.10;0.10;;;21.40;99.90;;;;;;5062806;28;20301;-81
2022/09/09 06:56:42;;;;;;;0.00;0.00;;;21.30;99.90;;;;;;5062069;28;20030;-79
2022/09/09 06:59:14;;;;;;;1.45;1.35;;;21.40;99.90;;;;;;5061868;28;20086;-83
2022/09/09 07:01:49;;;;;;;0.10;0.10;;;24.10;99.90;;;;;;5080508;28;20078;-83
2022/09/09 07:04:14;;;;;;;0.40;0.40;;;21.60;99.90;;;;;;5080921;28;20577;-78
2022/09/09 07:06:46;;;;;;;0.32;0.28;;;21.70;99.90;;;;;;5062350;28;20024;-79
2022/09/09 07:09:15;;;;;;;0.10;0.10;;;21.90;99.90;;;;;;5088785;22;20047;-78
2022/09/09 07:11:59;;;;;;;0.00;0.00;;;21.90;99.90;;;;;;5081399;28;20047;-81
2022/09/09 07:14:27;;;;;;;0.30;0.30;;;20.00;99.90;;;;;;5081646;28;20570;-79
2022/09/09 07:17:02;;;;;;;0.10;0.10;;;21.70;99.90;;;;;;5082461;28;20028;-79
2022/09/09 07:19:31;;;;;;;0.28;0.28;;;21.80;99.90;;;;;;5082233;28;20114;-78
2022/09/09 07:22:01;;;;;;;0.05;0.05;;;21.80;99.90;;;;;;5099642;28;20233;-87
2022/09/09 07:24:30;;;;;;;0.00;0.00;;;21.90;99.90;;;;;;5099647;28;20076;-78
2022/09/09 07:26:56;;;;;;;0.65;0.65;;;21.60;99.90;;;;;;5081044;28;20099;-80
2022/09/09 07:29:22;;;;;;;0.10;0.10;;;22.10;99.90;;;;;;5099165;28;20114;-78
2022/09/09 07:31:48;;;;;;;0.00;0.00;;;21.20;99.90;;;;;;5080869;28;20023;-78
2022/09/09 07:34:13;;;;;;;0.00;0.00;;;22.20;99.90;;;;;;5099444;28;20026;-78
2022/09/09 07:36:42;;;;;;;0.00;0.00;;;22.20;99.90;;;;;;5101970;28;20258;-81
2022/09/09 07:39:13;;;;;;;0.10;0.10;;;22.30;99.90;;;;;;5105208;28;20113;-80
2022/09/09 07:41:44;;;;;;;0.45;0.45;;;19.80;99.90;;;;;;5089779;28;20028;-79
2022/09/09 07:44:13;;;;;;;0.10;0.10;;;22.30;99.90;;;;;;5092115;28;20027;-78
2022/09/09 07:46:48;;;;;;;0.10;0.10;;;22.20;99.90;;;;;;5107204;28;20031;-79
2022/09/09 07:49:15;;;;;;;0.00;0.00;;;22.20;99.90;;;;;;5087746;28;20102;-78
2022/09/09 07:51:49;;;;;;;0.00;0.00;;;22.10;99.90;;;;;;5086764;28;20039;-81
2022/09/09 07:54:20;;;;;;;0.52;0.52;;;21.90;99.90;;;;;;5090253;28;20020;-85
2022/09/09 07:56:46;;;;;;;0.32;0.25;;;21.90;99.90;;;;;;5103989;28;20094;-80
2022/09/09 07:59:13;;;;;;;0.20;0.20;;;22.00;99.90;;;;;;5084990;28;20039;-81
2022/09/09 08:01:43;;;;;;;0.30;0.30;;;21.90;99.90;;;;;;5102483;28;20103;-80
2022/09/09 08:04:15;;;;;;;0.00;0.00;;;21.90;99.90;;;;;;5102112;28;20039;-76
2022/09/09 08:06:49;;;;;;;4.03;3.60;;;21.90;99.90;;;;;;5103005;28;20122;-86
2022/09/09 08:09:18;;;;;;;0.05;0.05;;;21.90;99.90;;;;;;5103437;28;20039;-80
2022/09/09 08:11:44;;;;;;;6.93;2.72;;;21.90;99.90;;;;;;5102911;28;20095;-79
2022/09/09 08:14:11;;;;;;;0.10;0.10;;;21.80;99.90;;;;;;5084656;28;20059;-80
2022/09/09 08:16:47;;;;;;;0.00;0.00;;;21.80;99.90;;;;;;5084130;28;20038;-82
2022/09/09 08:19:15;;;;;;;0.10;0.10;;;21.80;99.90;;;;;;5101743;28;20108;-78
2022/09/09 08:21:41;;;;;;;0.00;0.00;;;21.90;99.90;;;;;;5084362;28;20664;-83
2022/09/09 08:24:10;;;;;;;0.10;0.10;;;22.60;99.90;;;;;;5104076;28;20047;-80
2022/09/09 08:26:49;;;;;;;0.10;0.10;;;22.10;99.90;;;;;;5084029;28;20608;-86
2022/09/09 08:29:15;;;;;;;0.10;0.10;;;;;;;;;;5102368;28;20019;-83
2022/09/09 08:31:49;;;;;;;0.52;0.52;;;22.10;99.90;;;;;;5083384;28;20028;-77
2022/09/09 08:34:19;;;;;;;0.10;0.10;;;22.20;99.90;;;;;;5084587;28;20023;-78
2022/09/09 08:36:50;;;;;;;0.00;0.00;;;22.40;99.90;;;;;;5103629;28;20027;-80
2022/09/09 08:39:25;;;;;;;0.30;0.30;;;22.50;99.90;;;;;;5084040;28;20055;-78
2022/09/09 08:42:46;;;;;;;0.00;0.00;;;22.60;99.90;;;;;;5084673;28;20905;-82
2022/09/09 08:45:20;;;;;;;0.10;0.10;;;22.70;99.90;;;;;;5002672;28;20115;-80
2022/09/09 08:48:13;;;;;;;0.10;0.10;;;22.90;99.90;;;;;;5004530;28;20092;-80
2022/09/09 08:50:43;;;;;;;0.00;0.00;;;23.00;99.90;;;;;;5003600;28;20120;-81
2022/09/09 08:53:16;;;;;;;0.00;0.00;;;23.30;99.90;;;;;;5002098;28;20063;-80
2022/09/09 08:55:54;;;;;;;0.00;0.00;;;23.30;99.90;;;;;;5019984;28;20096;-83
2022/09/09 08:58:32;;;;;;;0.10;0.10;;;23.30;99.90;;;;;;5002493;28;20017;-79
2022/09/09 09:01:22;;;;;;;0.10;0.10;;;23.30;99.90;;;;;;5004839;28;20129;-80
2022/09/09 09:03:58;;;;;;;0.00;0.00;;;23.00;99.90;;;;;;5002722;28;20690;-79
2022/09/09 09:06:54;;;;;;;0.08;0.08;;;23.70;99.90;;;;;;5005534;28;20030;-81
2022/09/09 09:09:51;;;;;;;0.10;0.10;;;22.30;99.90;;;;;;4996116;28;20598;-81
2022/09/09 09:12:25;;;;;;;0.10;0.10;;;23.20;99.90;;;;;;5001787;28;20037;-79
2022/09/09 09:14:56;;;;;;;0.10;0.10;;;23.40;99.90;;;;;;5001028;28;20021;-78
2022/09/09 09:17:26;;;;;;;0.10;0.10;;;23.60;99.90;;;;;;5017677;28;20033;-80
2022/09/09 09:19:54;;;;;;;0.00;0.00;;;23.80;99.90;;;;;;5057329;28;20089;-79
2022/09/09 09:22:29;;;;;;;0.00;0.00;;;23.80;99.90;;;;;;5079764;28;20062;-79
2022/09/09 09:25:21;;;;;;;0.00;0.00;;;24.50;99.90;;;;;;5083903;28;20050;-85
2022/09/09 09:27:47;;;;;;;0.00;0.00;;;24.40;99.90;;;;;;5102091;28;20110;-79
2022/09/09 09:30:21;;;;;;;1.15;1.05;;;24.60;99.90;;;;;;5084434;28;20107;-79
2022/09/09 09:33:20;;;;;;;0.10;0.10;;;24.70;99.90;;;;;;5084006;28;20019;-79
2022/09/09 09:35:56;;;;;;;0.00;0.00;;;24.90;99.90;;;;;;5082151;28;20110;-79
2022/09/09 09:38:32;;;;;;;0.00;0.00;;;25.10;99.90;;;;;;5100776;28;20035;-81
2022/09/09 09:41:00;;;;;;;0.10;0.10;;;25.30;99.90;;;;;;5082729;28;20056;-85
2022/09/09 09:43:35;;;;;;;0.10;0.10;;;25.30;99.90;;;;;;5083224;28;20019;-79
2022/09/09 09:46:28;;;;;;;0.05;0.05;;;25.30;99.90;;;;;;5082965;28;20298;-85
2022/09/09 09:49:05;;;;;;;0.00;0.00;;;25.20;99.90;;;;;;5081563;28;20027;-79
2022/09/09 09:51:35;;;;;;;0.00;0.00;;;22.80;99.90;;;;;;5083092;28;20065;-79
2022/09/09 09:54:18;;;;;;;0.00;0.00;;;24.90;99.90;;;;;;5101144;28;20052;-79
2022/09/09 09:56:50;;;;;;;0.00;0.00;;;23.40;99.90;;;;;;5082856;28;20774;-79
2022/09/09 09:59:31;;;;;;;0.00;0.00;;;24.60;99.90;;;;;;5082010;28;20666;-80
2022/09/09 10:02:15;;;;;;;0.00;0.00;;;24.70;99.90;;;;;;5082741;28;20023;-93
2022/09/09 10:04:41;;;;;;;0.00;0.00;;;24.60;99.90;;;;;;5089451;28;20031;-81
2022/09/09 10:07:20;;;;;;;0.00;0.00;;;24.60;99.90;;;;;;5104683;28;20019;-82
2022/09/09 10:09:57;;;;;;;0.00;0.00;;;24.60;99.90;;;;;;5080182;28;20036;-81
2022/09/09 10:12:50;;;;;;;0.00;0.00;;;24.60;99.90;;;;;;5081899;28;20536;-83
2022/09/09 10:15:40;;;;;;;0.08;0.08;;;24.50;99.90;;;;;;4982191;28;20097;-79
2022/09/09 10:18:43;;;;;;;0.00;0.00;;;24.80;99.90;;;;;;4987156;28;20033;-82
2022/09/09 10:21:58;;;;;;;0.00;0.00;;;25.00;99.90;;;;;;4998966;28;20177;-78
2022/09/09 10:24:29;;;;;;;0.03;0.03;;;25.00;99.90;;;;;;4987286;28;20022;-84
2022/09/09 10:27:12;;;;;;;0.00;0.00;;;25.40;99.90;;;;;;4986544;28;20549;-80
2022/09/09 10:29:50;;;;;;;0.00;0.00;;;25.60;99.90;;;;;;4985865;28;20041;-80
2022/09/09 10:32:43;;;;;;;0.10;0.10;;;24.50;99.90;;;;;;4982036;28;20117;-78
2022/09/09 10:35:37;;;;;;;0.00;0.00;;;25.80;99.90;;;;;;4986464;28;20037;-80
2022/09/09 10:38:24;;;;;;;0.00;0.00;;;25.90;99.90;;;;;;4986705;28;20889;-80
2022/09/09 10:40:56;;;;;;;0.20;0.17;;;26.00;99.90;;;;;;4986751;28;20536;-80
2022/09/09 10:43:51;;;;;;;0.00;0.00;;;25.80;99.90;;;;;;4986885;28;20018;-78
2022/09/09 10:46:52;;;;;;;0.00;0.00;;;26.00;99.90;;;;;;4988617;28;20639;-79
2022/09/09 10:50:13;;;;;;;0.15;0.15;;;26.10;99.90;;;;;;4983678;28;20057;-84
2022/09/09 10:53:20;;;;;;;0.00;0.00;;;26.10;99.90;;;;;;5052746;28;20043;-82
2022/09/09 10:55:52;;;;;;;0.00;0.00;;;26.60;99.90;;;;;;5078870;28;20032;-80
2022/09/09 10:58:27;;;;;;;1.90;1.80;;;26.60;99.90;;;;;;5078720;28;20565;-79
2022/09/09 11:01:01;;;;;;;0.15;0.15;;;26.70;99.90;;;;;;5078546;28;20115;-79
2022/09/09 11:03:29;;;;;;;0.00;0.00;;;26.80;99.90;;;;;;5079551;28;20074;-87
2022/09/09 11:06:22;;;;;;;0.00;0.00;;;27.00;99.60;;;;;;5077910;28;20016;-83
2022/09/09 11:08:49;;;;;;;0.00;0.00;;;23.80;99.30;;;;;;5077942;28;20105;-80
2022/09/09 11:11:27;;;;;;;0.00;0.00;;;27.40;99.50;;;;;;5078861;28;20047;-78
2022/09/09 11:14:00;;;;;;;0.00;0.00;;;27.50;99.00;;;;;;5081611;28;20020;-79
2022/09/09 11:16:45;;;;;;;0.00;0.00;;;27.70;98.70;;;;;;5081608;28;20123;-79
2022/09/09 11:19:45;;;;;;;0.00;0.00;;;28.10;98.00;;;;;;5082778;28;20074;-80
2022/09/09 11:22:42;;;;;;;0.00;0.00;;;28.40;98.00;;;;;;5080777;28;20036;-77
2022/09/09 11:25:30;;;;;;;0.00;0.00;;;28.70;97.00;;;;;;5081923;28;20051;-78
2022/09/09 11:28:15;;;;;;;0.20;0.10;;;30.60;97.60;;;;;;5082328;28;20111;-82
2022/09/09 11:31:02;;;;;;;0.03;0.03;;;29.10;96.80;;;;;;5083788;28;20020;-79
2022/09/09 11:34:15;;;;;;;0.00;0.00;;;29.10;95.60;;;;;;5082070;28;20023;-92
2022/09/09 11:36:52;;;;;;;0.00;0.00;;;28.70;96.30;;;;;;4983876;28;20037;-86
2022/09/09 11:39:42;;;;;;;0.00;0.00;;;28.70;96.70;;;;;;5000004;28;20064;-83
2022/09/09 11:42:30;;;;;;;0.10;0.10;;;28.50;96.10;;;;;;4983800;28;20075;-83
2022/09/09 11:44:57;;;;;;;0.00;0.00;;;28.60;96.30;;;;;;4983754;28;20554;-81
2022/09/09 11:47:29;;;;;;;0.00;0.00;;;28.70;96.70;;;;;;4985900;28;20029;-81
2022/09/09 11:50:19;;;;;;;0.00;0.00;;;28.80;95.60;;;;;;4999833;28;20232;-77
2022/09/09 11:52:49;;;;;;;2.45;1.08;;;28.90;95.10;;;;;;4985015;28;20100;-82
2022/09/09 11:55:37;;;;;;;0.10;0.10;;;29.20;95.10;;;;;;4984181;28;20025;-80
2022/09/09 11:58:17;;;;;;;1.02;1.02;;;28.90;95.40;;;;;;5000328;28;20416;-78
2022/09/09 12:00:49;;;;;;;0.00;0.00;;;29.10;94.60;;;;;;4982861;28;20033;-83
2022/09/09 12:03:34;;;;;;;0.00;0.00;;;28.50;93.60;;;;;;4999442;28;20539;-85
2022/09/09 12:06:22;;;;;;;0.30;0.30;;;29.00;95.30;;;;;;4999934;28;20041;-78
2022/09/09 12:08:54;;;;;;;0.03;0.03;;;30.70;95.00;;;;;;4969419;28;20180;-79
2022/09/09 12:11:30;;;;;;;0.05;0.05;;;29.20;94.80;;;;;;4982510;28;20054;-81
2022/09/09 12:14:18;;;;;;;0.00;0.00;;;29.50;93.30;;;;;;5037506;28;20028;-80
2022/09/09 12:16:52;;;;;;;0.03;0.03;;;29.40;93.80;;;;;;5073682;28;20075;-79
2022/09/09 12:19:31;;;;;;;0.00;0.00;;;29.60;95.00;;;;;;5063329;28;20494;-80
2022/09/09 12:22:30;;;;;;;0.80;0.47;;;29.90;94.20;;;;;;5063400;28;20027;-79
2022/09/09 12:25:40;;;;;;;3.33;2.30;;;29.90;92.50;;;;;;5081739;28;20750;-80
2022/09/09 12:28:22;;;;;;;0.30;0.22;;;29.70;92.50;;;;;;5018917;28;20173;-80
2022/09/09 12:31:19;;;;;;;2.45;2.35;;;29.40;92.90;;;;;;5002083;28;20041;-81
2022/09/09 12:33:48;;;;;;;0.10;0.10;;;30.20;92.00;;;;;;5001713;28;20235;-89
2022/09/09 12:36:34;;;;;;;0.00;0.00;;;30.30;92.80;;;;;;5005122;28;20034;-81
2022/09/09 12:39:16;;;;;;;0.30;0.15;;;30.50;91.50;;;;;;5004200;28;20921;-81
2022/09/09 12:41:57;;;;;;;0.10;0.10;;;30.70;91.10;;;;;;5020547;28;20063;-92
2022/09/09 12:44:25;;;;;;;0.10;0.10;;;30.70;92.00;;;;;;5003930;28;20022;-80
2022/09/09 12:46:52;;;;;;;0.05;0.05;;;31.00;91.50;;;;;;5002576;28;20033;-89
2022/09/09 12:49:38;;;;;;;;;;;;;;;;;;;;;
2022/09/09 12:52:16;;;;;;;0.30;0.30;;;31.00;91.10;;;;;;5018748;28;20032;-83
2022/09/09 12:54:46;;;;;;;0.00;0.00;;;31.70;89.70;;;;;;5003423;28;20022;-83
2022/09/09 12:57:13;;;;;;;0.10;0.10;;;31.40;89.00;;;;;;5005238;28;20040;-83
2022/09/09 12:59:41;;;;;;;0.20;0.20;;;29.70;89.80;;;;;;5008810;28;20021;-79
2022/09/09 13:02:22;;;;;;;0.65;0.65;;;30.80;90.50;;;;;;5014170;28;20029;-78
2022/09/09 13:04:50;;;;;;;0.00;0.00;;;31.80;90.90;;;;;;5076413;28;20032;-82
2022/09/09 13:07:22;;;;;;;0.00;0.00;;;31.20;91.60;;;;;;5098038;28;20028;-79
2022/09/09 13:10:03;;;;;;;0.00;0.00;;;31.50;90.60;;;;;;5079771;28;20044;-80
2022/09/09 13:12:29;;;;;;;0.00;0.00;;;30.00;87.90;;;;;;5092824;28;20074;-81
2022/09/09 13:14:58;;;;;;;6.55;3.72;;;31.80;90.50;;;;;;5090430;28;20039;-78
2022/09/09 13:17:32;;;;;;;0.40;0.28;;;32.00;89.70;;;;;;5089532;28;20433;-80
2022/09/09 13:19:58;;;;;;;0.00;0.00;;;31.30;89.60;;;;;;5087999;28;20040;-82
2022/09/09 13:22:37;;;;;;;2.47;2.38;;;32.10;90.30;;;;;;5086079;28;20028;-84
2022/09/09 13:25:16;;;;;;;0.00;0.00;;;32.00;87.00;;;;;;5083064;28;20031;-81
2022/09/09 13:28:24;;;;;;;0.00;0.00;;;31.80;87.00;;;;;;5082363;28;20028;-82
2022/09/09 13:31:01;;;;;;;0.00;0.00;;;31.70;88.30;;;;;;5003484;28;20199;-80
2022/09/09 13:33:40;;;;;;;0.13;0.13;;;31.60;89.80;;;;;;5022555;28;20029;-88
2022/09/09 13:36:14;;;;;;;0.10;0.10;;;31.10;88.60;;;;;;5004778;28;20033;-78
2022/09/09 13:38:56;;;;;;;0.00;0.00;;;30.20;89.00;;;;;;5004534;28;20037;-83
2022/09/09 13:41:36;;;;;;;0.00;0.00;;;30.30;90.00;;;;;;5007280;28;20025;-81
2022/09/09 13:44:13;;;;;;;0.85;0.38;;;29.80;90.30;;;;;;5005050;28;20060;-88